Time;durP1;ratioP1;P1;durP2;ratioP2;P2;SDS_P1;SDS_P2;PMS_P1;PMS_P2;Temp;Humidity;BMP_temperature;BMP_pressure;BME280_temperature;BME280_humidity;BME280_pressure;Samples;Min_cycle;Max_cycle;Signal;HPM_P1;HPM_P2
2022/05/09 00:01:46;;;;;;;6.32;4.35;;;;;;;18.70;52.08;100408.78;4444162;32;31979;-87
2022/05/09 00:04:34;;;;;;;6.93;4.57;;;;;;;18.51;52.89;100401.66;4457451;32;34196;-88
2022/05/09 00:07:30;;;;;;;7.03;4.78;;;;;;;18.46;53.19;100404.31;4446063;32;34352;-88
2022/05/09 00:10:17;;;;;;;6.70;4.50;;;;;;;18.49;53.24;100394.66;4456751;32;34730;-88
2022/05/09 00:13:17;;;;;;;7.03;4.72;;;;;;;18.45;53.40;100399.84;4445664;32;33212;-88
2022/05/09 00:16:03;;;;;;;7.55;4.78;;;;;;;18.25;53.97;100393.81;4442255;32;32336;-88
2022/05/09 00:18:55;;;;;;;6.87;4.47;;;;;;;18.33;53.65;100393.44;4444434;32;34059;-89
2022/05/09 00:21:43;;;;;;;7.30;4.90;;;;;;;18.33;53.54;100390.66;4471160;32;33912;-87
2022/05/09 00:24:34;;;;;;;7.93;5.05;;;;;;;18.38;53.45;100390.78;4444751;32;32105;-87
2022/05/09 00:27:22;;;;;;;10.68;5.70;;;;;;;18.21;53.96;100395.38;4456639;32;33854;-89
2022/05/09 00:30:10;;;;;;;7.12;4.95;;;;;;;18.20;53.90;100394.53;4431373;32;33874;-88
2022/05/09 00:33:02;;;;;;;9.10;5.00;;;;;;;18.17;54.19;100405.31;4432069;32;32626;-86
2022/05/09 00:35:55;;;;;;;6.97;4.70;;;;;;;17.93;54.63;100394.19;4458134;32;33159;-88
2022/05/09 00:38:43;;;;;;;7.50;4.82;;;;;;;17.96;54.46;100399.25;4444265;32;34572;-87
2022/05/09 00:41:42;;;;;;;7.50;4.70;;;;;;;18.02;54.29;100401.09;4457867;32;34567;-87
2022/05/09 00:44:33;;;;;;;6.87;4.72;;;;;;;17.91;54.45;100396.34;4446092;32;34539;-87
2022/05/09 00:47:21;;;;;;;7.43;4.80;;;;;;;18.06;54.19;100413.41;4443291;32;31838;-89
2022/05/09 00:50:10;;;;;;;7.45;5.30;;;;;;;17.86;54.71;100403.72;4457857;32;34033;-88
2022/05/09 00:52:58;;;;;;;8.50;5.22;;;;;;;17.89;54.64;100406.84;4444504;32;35672;-88
2022/05/09 00:56:05;;;;;;;6.40;4.57;;;;;;;17.85;54.87;100404.81;4444827;32;34787;-87
2022/05/09 00:59:07;;;;;;;9.10;5.93;;;;;;;17.85;54.92;100408.41;4458558;32;33417;-87
2022/05/09 01:01:54;;;;;;;8.07;5.12;;;;;;;17.87;54.93;100406.25;4470979;32;34196;-88
2022/05/09 01:04:43;;;;;;;8.48;5.60;;;;;;;17.77;55.36;100408.75;4443764;32;33228;-88
2022/05/09 01:07:41;;;;;;;9.35;4.87;;;;;;;17.68;55.67;100399.09;4445925;32;33199;-88
2022/05/09 01:10:34;;;;;;;7.60;5.25;;;;;;;17.83;55.27;100409.75;4432108;32;31784;-85
2022/05/09 01:13:23;;;;;;;9.32;5.50;;;;;;;17.74;55.60;100414.78;4444660;32;32043;-87
2022/05/09 01:16:13;;;;;;;8.63;5.10;;;;;;;17.60;55.91;100405.78;4444834;32;36663;-86
2022/05/09 01:19:07;;;;;;;8.00;5.32;;;;;;;17.55;56.27;100413.16;4443763;32;32544;-86
2022/05/09 01:22:02;;;;;;;8.75;5.87;;;;;;;17.60;55.96;100410.50;4445285;32;33146;-85
2022/05/09 01:24:53;;;;;;;8.98;5.45;;;;;;;17.58;56.29;100413.50;4443302;32;33118;-77
2022/05/09 01:27:40;;;;;;;8.57;5.00;;;;;;;17.40;56.96;100420.00;4457627;32;34571;-85
2022/05/09 01:31:00;;;;;;;10.20;5.03;;;;;;;17.69;57.29;100420.22;4431137;32;32469;-84
2022/05/09 01:33:53;;;;;;;12.23;5.68;;;;;;;17.70;56.64;100421.91;4456402;32;33328;-85
2022/05/09 01:36:45;;;;;;;7.90;5.25;;;;;;;17.66;56.34;100426.25;4470146;32;34525;-85
2022/05/09 01:39:36;;;;;;;11.80;5.68;;;;;;;17.70;56.15;100419.13;4443487;32;33154;-85
2022/05/09 01:42:26;;;;;;;8.00;5.43;;;;;;;17.65;56.40;100430.06;4444230;32;33854;-86
2022/05/09 01:45:21;;;;;;;8.40;5.37;;;;;;;17.66;56.27;100424.31;4446134;32;34384;-84
2022/05/09 01:51:10;;;;;;;7.40;5.20;;;;;;;17.49;56.95;100416.91;4470380;32;34645;-85
2022/05/09 01:53:59;;;;;;;9.32;5.12;;;;;;;17.44;56.88;100418.44;4445402;32;33707;-85
2022/05/09 01:56:50;;;;;;;9.40;5.72;;;;;;;17.55;56.52;100418.72;4444240;32;32227;-84
2022/05/09 01:59:40;;;;;;;8.13;5.30;;;;;;;17.48;56.63;100420.75;4444839;32;33593;-85
2022/05/09 02:02:36;;;;;;;8.18;4.95;;;;;;;17.42;56.96;100420.59;4443847;32;32928;-83
2022/05/09 02:05:27;;;;;;;7.60;5.40;;;;;;;17.60;56.39;100416.06;4443208;32;33532;-85
2022/05/09 02:08:25;;;;;;;7.57;5.20;;;;;;;17.56;56.05;100412.91;4456740;32;33928;-85
2022/05/09 02:11:18;;;;;;;7.80;5.22;;;;;;;17.67;55.88;100411.28;4457562;32;33765;-86
2022/05/09 02:14:10;;;;;;;8.13;5.80;;;;;;;17.55;56.11;100413.16;4443020;32;33320;-84
2022/05/09 02:17:04;;;;;;;8.63;5.20;;;;;;;17.56;56.34;100420.37;4456480;32;33845;-85
2022/05/09 02:19:55;;;;;;;8.40;5.12;;;;;;;17.34;57.09;100420.94;4457217;32;33980;-85
2022/05/09 02:22:53;;;;;;;8.48;5.65;;;;;;;17.34;57.05;100426.50;4457683;32;33835;-84
2022/05/09 02:25:41;;;;;;;7.55;5.40;;;;;;;17.37;56.93;100425.19;4443459;32;34240;-85
2022/05/09 02:28:38;;;;;;;8.20;5.40;;;;;;;17.33;57.05;100426.72;4455714;32;32588;-84
2022/05/09 02:31:33;;;;;;;8.27;5.47;;;;;;;17.24;57.13;100420.66;4445252;32;33890;-84
2022/05/09 02:34:25;;;;;;;8.57;5.75;;;;;;;17.25;57.11;100430.66;4441600;32;34463;-86
2022/05/09 02:37:16;;;;;;;9.00;5.95;;;;;;;17.27;57.08;100425.72;4431601;32;34082;-84
2022/05/09 02:40:08;;;;;;;7.43;5.15;;;;;;;17.19;57.34;100431.59;4430998;32;32587;-84
2022/05/09 02:43:04;;;;;;;8.60;5.72;;;;;;;17.04;57.73;100431.16;4443844;32;33065;-85
2022/05/09 02:46:03;;;;;;;8.45;5.43;;;;;;;17.12;57.40;100431.69;4444323;32;33344;-85
2022/05/09 02:48:57;;;;;;;7.70;5.22;;;;;;;17.15;57.32;100435.06;4444248;32;34115;-84
2022/05/09 02:51:51;;;;;;;9.23;5.62;;;;;;;17.16;57.31;100431.22;4456846;32;33916;-84
2022/05/09 02:54:41;;;;;;;7.85;5.25;;;;;;;17.16;57.30;100440.41;4456786;32;33326;-85
2022/05/09 02:57:34;;;;;;;7.70;5.18;;;;;;;17.09;57.50;100434.09;4457030;32;34476;-86
2022/05/09 03:00:29;;;;;;;10.50;5.62;;;;;;;17.04;57.70;100439.50;4455782;32;34074;-85
2022/05/09 03:06:22;;;;;;;9.15;5.70;;;;;;;17.06;57.91;100437.31;4459066;32;33012;-83
2022/05/09 03:09:18;;;;;;;9.25;5.65;;;;;;;17.11;57.69;100435.53;4436220;32;32479;-85
2022/05/09 03:12:09;;;;;;;7.80;5.28;;;;;;;17.12;57.69;100437.25;4447603;32;33410;-85
2022/05/09 03:14:57;;;;;;;7.97;5.72;;;;;;;17.02;57.95;100430.56;4459803;32;34101;-84
2022/05/09 03:17:50;;;;;;;11.40;5.47;;;;;;;16.91;58.43;100434.09;4443336;32;31907;-85
2022/05/09 03:20:45;;;;;;;8.32;5.32;;;;;;;17.04;58.30;100436.72;4457683;32;34029;-84
2022/05/09 03:23:35;;;;;;;8.75;5.45;;;;;;;16.99;58.61;100448.50;4457285;32;34248;-85
2022/05/09 03:26:20;;;;;;;9.50;5.70;;;;;;;17.03;58.52;100444.19;4443573;32;33880;-84
2022/05/09 03:29:08;;;;;;;8.77;5.40;;;;;;;16.94;58.92;100440.03;4430842;32;32792;-85
2022/05/09 03:32:07;;;;;;;7.57;5.22;;;;;;;17.05;58.66;100447.56;4443893;32;32251;-85
2022/05/09 03:34:55;;;;;;;;;;;;;;;17.18;58.26;100442.94;4444664;32;34756;-85
2022/05/09 03:37:48;;;;;;;7.15;5.30;;;;;;;17.12;58.68;100450.25;4443376;32;34221;-84
2022/05/09 03:40:39;;;;;;;8.20;5.43;;;;;;;17.16;58.38;100454.25;4456187;32;32843;-85
2022/05/09 03:43:35;;;;;;;8.50;5.47;;;;;;;17.15;58.52;100451.72;4442383;32;32506;-86
2022/05/09 03:46:25;;;;;;;8.13;5.18;;;;;;;17.23;58.28;100449.47;4444099;32;33950;-84
2022/05/09 03:49:14;;;;;;;7.68;5.10;;;;;;;17.27;58.33;100456.25;4432505;32;33070;-85
2022/05/09 03:52:06;;;;;;;7.50;5.18;;;;;;;17.29;58.32;100461.56;4457976;32;33338;-86
2022/05/09 03:55:00;;;;;;;8.85;4.97;;;;;;;17.26;58.62;100457.34;4444249;32;32319;-84
2022/05/09 03:57:51;;;;;;;7.93;5.32;;;;;;;17.34;58.56;100464.50;4443950;32;33395;-84
2022/05/09 04:00:47;;;;;;;7.93;5.15;;;;;;;17.35;58.71;100464.25;4457570;32;33816;-85
2022/05/09 04:03:38;;;;;;;11.40;5.55;;;;;;;17.27;59.05;100459.03;4444634;32;31849;-85
2022/05/09 04:06:28;;;;;;;9.00;5.32;;;;;;;17.45;58.73;100463.69;4457419;32;33776;-84
2022/05/09 04:09:24;;;;;;;8.95;5.57;;;;;;;17.53;58.49;100470.84;4458886;32;35536;-85
2022/05/09 04:12:18;;;;;;;8.45;5.10;;;;;;;17.55;58.61;100468.69;4457495;32;34078;-82
2022/05/09 04:18:06;;;;;;;10.20;5.68;;;;;;;17.62;58.52;100469.41;4458783;32;33743;-85
2022/05/09 04:20:55;;;;;;;10.13;5.50;;;;;;;17.69;58.50;100465.47;4432998;32;34224;-84
2022/05/09 04:23:46;;;;;;;8.15;5.30;;;;;;;17.75;58.49;100470.09;4445183;32;34563;-86
2022/05/09 04:26:38;;;;;;;8.35;5.30;;;;;;;17.81;58.54;100473.84;4445209;32;33141;-85
2022/05/09 04:29:29;;;;;;;8.27;5.18;;;;;;;17.90;58.15;100477.97;4445035;32;32337;-84
2022/05/09 04:32:23;;;;;;;7.72;4.70;;;;;;;17.84;57.86;100478.09;4458154;32;34282;-84
2022/05/09 04:35:14;;;;;;;9.35;5.12;;;;;;;17.85;57.22;100480.63;4456245;32;33868;-83
2022/05/09 04:38:02;;;;;;;9.32;5.12;;;;;;;17.98;56.85;100480.41;4444979;32;34151;-85
2022/05/09 04:40:58;;;;;;;11.75;5.00;;;;;;;18.03;56.95;100482.47;4458004;32;33953;-83
2022/05/09 04:43:53;;;;;;;7.97;4.93;;;;;;;18.06;57.39;100485.63;4447076;32;32973;-83
2022/05/09 04:46:44;;;;;;;8.95;5.60;;;;;;;18.08;58.11;100494.56;4457520;32;34296;-85
2022/05/09 04:49:33;;;;;;;8.80;5.30;;;;;;;18.15;58.57;100496.41;4445742;32;33464;-84
2022/05/09 04:52:30;;;;;;;10.35;5.00;;;;;;;18.16;58.80;100490.59;4443912;32;32364;-83
2022/05/09 04:55:25;;;;;;;13.52;5.28;;;;;;;18.28;58.86;100496.12;4458939;32;33309;-83
2022/05/09 04:58:24;;;;;;;7.60;5.07;;;;;;;18.30;59.30;100488.41;4444239;32;32600;-83
2022/05/09 05:01:12;;;;;;;8.10;4.90;;;;;;;18.27;59.52;100486.12;4444416;32;31897;-82
2022/05/09 05:04:04;;;;;;;7.50;4.32;;;;;;;18.49;59.08;100491.94;4445543;32;33651;-83
2022/05/09 05:06:53;;;;;;;7.47;4.45;;;;;;;18.53;58.75;100501.50;4457173;32;34207;-81
2022/05/09 05:09:48;;;;;;;8.80;4.28;;;;;;;18.62;58.57;100497.28;4456295;32;33676;-78
2022/05/09 05:12:44;;;;;;;7.10;4.18;;;;;;;18.73;58.34;100500.06;4444365;32;32164;-79
2022/05/09 05:15:38;;;;;;;7.57;4.70;;;;;;;18.78;58.01;100491.00;4456014;32;32153;-81
2022/05/09 05:18:32;;;;;;;9.68;6.60;;;;;;;18.80;58.58;100496.31;4443590;32;33245;-80
2022/05/09 05:21:30;;;;;;;8.20;5.80;;;;;;;18.78;58.93;100502.13;4442725;32;33390;-81
2022/05/09 05:24:25;;;;;;;8.75;6.03;;;;;;;18.79;58.91;100502.97;4457011;32;32110;-78
2022/05/09 05:27:13;;;;;;;7.80;4.47;;;;;;;18.87;58.81;100497.84;4429721;32;32251;-85
2022/05/09 05:30:04;;;;;;;7.62;4.32;;;;;;;18.90;58.95;100510.44;4444971;32;34741;-80
2022/05/09 05:33:03;;;;;;;8.55;4.55;;;;;;;18.99;58.70;100504.25;4445133;32;34440;-82
2022/05/09 05:35:53;;;;;;;7.43;4.05;;;;;;;19.08;58.26;100513.91;4441922;32;34334;-80
2022/05/09 05:38:51;;;;;;;7.03;4.22;;;;;;;19.09;59.56;100511.97;4453922;32;34499;-81
2022/05/09 05:41:34;;;;;;;7.12;4.37;;;;;;;19.13;58.63;100515.97;4441689;32;35397;-80
2022/05/09 05:44:26;;;;;;;7.80;4.32;;;;;;;19.14;58.44;100522.38;4441160;32;34907;-80
2022/05/09 05:47:17;;;;;;;6.75;4.28;;;;;;;19.18;58.53;100524.41;4441750;32;32828;-80
2022/05/09 05:50:06;;;;;;;8.15;4.05;;;;;;;19.31;58.07;100526.94;4453572;32;34573;-80
2022/05/09 05:52:57;;;;;;;6.10;3.83;;;;;;;19.37;57.55;100527.91;4453592;32;35357;-81
2022/05/09 05:55:54;;;;;;;7.90;4.47;;;;;;;19.43;57.34;100529.69;4441633;32;34647;-79
2022/05/09 05:58:50;;;;;;;8.55;4.22;;;;;;;19.53;56.87;100531.84;4453623;32;34158;-80
2022/05/09 06:01:42;;;;;;;6.35;4.10;;;;;;;19.53;56.91;100537.41;4441674;32;33355;-81
2022/05/09 06:04:36;;;;;;;8.95;4.60;;;;;;;19.55;57.26;100541.63;4435476;32;33128;-80
2022/05/09 06:07:30;;;;;;;7.03;4.45;;;;;;;19.65;57.21;100541.84;4446510;32;34050;-79
2022/05/09 06:10:26;;;;;;;9.52;4.50;;;;;;;19.64;57.09;100536.53;4426475;32;34003;-80
2022/05/09 06:13:23;;;;;;;9.40;4.85;;;;;;;19.72;56.81;100541.72;4424995;32;33248;-81
2022/05/09 06:16:13;;;;;;;8.32;4.90;;;;;;;19.70;56.60;100546.69;4425704;32;35266;-81
2022/05/09 06:19:00;;;;;;;8.32;4.62;;;;;;;19.77;56.25;100549.31;4424835;32;33876;-80
2022/05/09 06:21:55;;;;;;;9.60;4.80;;;;;;;19.79;56.30;100542.41;4425792;32;34093;-81
2022/05/09 06:24:47;;;;;;;9.95;5.32;;;;;;;19.87;56.62;100550.38;4400326;32;32355;-80
2022/05/09 06:27:38;;;;;;;8.23;4.40;;;;;;;19.91;56.81;100551.56;4425917;32;34480;-80
2022/05/09 06:30:27;;;;;;;8.88;5.00;;;;;;;19.90;56.57;100544.28;4437497;32;34608;-80
2022/05/09 06:33:15;;;;;;;9.77;5.00;;;;;;;19.94;56.28;100553.00;4412700;32;32868;-80
2022/05/09 06:36:09;;;;;;;7.90;4.43;;;;;;;20.02;56.47;100550.66;4426559;32;34563;-80
2022/05/09 06:39:07;;;;;;;8.48;4.72;;;;;;;20.00;55.80;100550.06;4414064;32;34590;-80
2022/05/09 06:41:55;;;;;;;7.75;4.80;;;;;;;20.01;56.02;100557.34;4426220;32;34632;-81
2022/05/09 06:44:52;;;;;;;7.47;4.50;;;;;;;20.09;55.96;100553.28;4420628;32;33123;-79
2022/05/09 06:47:38;;;;;;;12.32;5.70;;;;;;;20.15;56.33;100552.25;4435537;32;33853;-80
2022/05/09 06:50:26;;;;;;;11.38;5.55;;;;;;;20.18;56.15;100556.50;4440488;32;34327;-81
2022/05/09 06:53:22;;;;;;;16.05;9.80;;;;;;;20.21;55.66;100562.41;4441770;32;33813;-80
2022/05/09 06:56:22;;;;;;;13.50;6.28;;;;;;;20.35;55.21;100565.72;4452795;32;32912;-80
2022/05/09 06:59:15;;;;;;;11.10;6.70;;;;;;;20.34;54.55;100567.66;4441203;32;32440;-80
2022/05/09 07:02:09;;;;;;;11.75;6.57;;;;;;;20.24;53.55;100575.00;4452764;32;33325;-80
2022/05/09 07:04:59;;;;;;;10.90;6.57;;;;;;;20.35;53.80;100568.50;4451983;32;32674;-80
2022/05/09 07:07:48;;;;;;;12.90;8.73;;;;;;;20.39;54.13;100580.88;4451604;32;33395;-80
2022/05/09 07:10:39;;;;;;;13.68;8.32;;;;;;;20.51;54.30;100578.03;4433884;32;33650;-80
2022/05/09 07:13:27;;;;;;;11.80;6.80;;;;;;;20.48;53.98;100572.94;4439380;32;34364;-81
2022/05/09 07:16:21;;;;;;;12.60;7.47;;;;;;;20.55;53.94;100576.44;4421698;32;32645;-80
2022/05/09 07:19:08;;;;;;;10.43;6.72;;;;;;;20.47;53.35;100588.84;4436028;32;31440;-79
2022/05/09 07:21:57;;;;;;;9.70;6.28;;;;;;;20.51;52.18;100591.97;4424425;32;35216;-79
2022/05/09 07:24:49;;;;;;;10.55;6.68;;;;;;;20.39;51.82;100592.03;4429266;32;34615;-81
2022/05/09 07:27:42;;;;;;;10.27;6.45;;;;;;;20.59;51.84;100586.81;4443795;32;33658;-80
2022/05/09 07:30:38;;;;;;;16.35;9.75;;;;;;;20.75;52.34;100587.94;4436268;32;31150;-80
2022/05/09 07:33:36;;;;;;;15.63;8.68;;;;;;;20.68;51.26;100598.41;4425043;32;32257;-80
2022/05/09 07:36:27;;;;;;;13.15;8.75;;;;;;;20.76;50.80;100586.81;4435047;32;34412;-81
2022/05/09 07:39:23;;;;;;;11.45;7.93;;;;;;;20.81;51.66;100588.81;4431599;32;32602;-81
2022/05/09 07:42:21;;;;;;;10.82;7.72;;;;;;;20.93;51.71;100584.00;4430490;32;32888;-81
2022/05/09 07:45:12;;;;;;;8.82;5.78;;;;;;;20.97;52.37;100582.38;4437181;32;32326;-81
2022/05/09 07:48:04;;;;;;;9.57;5.97;;;;;;;21.05;51.65;100593.13;4434437;32;32764;-81
2022/05/09 07:50:58;;;;;;;9.75;5.37;;;;;;;20.98;51.04;100586.88;4446887;32;34216;-82
2022/05/09 07:53:54;;;;;;;7.28;4.97;;;;;;;21.12;50.72;100588.22;4436363;32;34382;-80
2022/05/09 07:56:43;;;;;;;24.48;17.62;;;;;;;21.13;50.18;100591.84;4434003;32;34547;-80
2022/05/09 07:59:36;;;;;;;28.23;19.02;;;;;;;21.18;50.99;100595.56;4448667;32;33078;-80
2022/05/09 08:02:27;;;;;;;13.50;9.27;;;;;;;21.42;51.45;100587.00;4434879;32;33969;-81
2022/05/09 08:05:18;;;;;;;10.07;6.40;;;;;;;21.42;49.51;100585.03;4465657;32;32984;-79
2022/05/09 08:08:10;;;;;;;10.18;5.97;;;;;;;21.53;48.62;100586.84;4446620;32;33985;-80
2022/05/09 08:10:59;;;;;;;6.30;4.20;;;;;;;21.83;49.37;100591.12;4441988;32;34172;-79
2022/05/09 08:14:00;;;;;;;10.20;7.10;;;;;;;21.53;46.88;100592.44;4435923;32;33773;-80
2022/05/09 08:16:51;;;;;;;10.15;5.78;;;;;;;21.90;47.11;100595.41;4448319;32;33378;-80
2022/05/09 08:19:45;;;;;;;9.77;5.45;;;;;;;22.15;47.63;100600.44;4422671;32;32347;-80
2022/05/09 08:22:37;;;;;;;8.25;5.82;;;;;;;22.31;48.22;100596.72;4424957;32;34336;-80
2022/05/09 08:25:32;;;;;;;9.90;5.37;;;;;;;22.36;48.15;100595.91;4436179;32;34259;-80
2022/05/09 08:28:24;;;;;;;8.10;5.10;;;;;;;22.10;45.88;100588.41;4450748;32;34141;-79
2022/05/09 08:31:06;;;;;;;9.05;4.95;;;;;;;22.40;45.87;100580.31;4445311;32;32167;-80
2022/05/09 08:33:57;;;;;;;9.82;4.87;;;;;;;22.56;47.00;100584.94;4448189;32;34702;-80
2022/05/09 08:36:53;;;;;;;7.75;5.03;;;;;;;22.45;45.72;100576.72;4442851;32;34714;-80
2022/05/09 08:39:41;;;;;;;9.07;5.03;;;;;;;22.73;45.65;100579.19;4429986;32;32271;-79
2022/05/09 08:42:37;;;;;;;6.53;4.37;;;;;;;22.94;45.93;100583.84;4452263;32;32568;-79
2022/05/09 08:45:29;;;;;;;8.68;5.12;;;;;;;22.95;46.08;100584.69;4452242;32;34600;-80
2022/05/09 08:48:31;;;;;;;8.32;4.60;;;;;;;22.80;45.69;100582.63;4434097;32;34700;-80
2022/05/09 08:52:13;;;;;;;7.07;4.32;;;;;;;23.11;45.37;100578.09;4429921;32;33201;-80
2022/05/09 08:55:10;;;;;;;12.90;8.05;;;;;;;22.74;42.98;100582.84;4445598;32;32111;-80
2022/05/09 08:58:23;;;;;;;11.05;5.75;;;;;;;22.90;42.19;100582.69;4440959;32;34068;-82
2022/05/09 09:01:31;;;;;;;9.93;6.45;;;;;;;23.12;42.12;100579.78;4445567;32;33378;-80
2022/05/09 09:04:29;;;;;;;8.65;5.78;;;;;;;23.27;41.97;100582.69;4434792;32;31776;-80
2022/05/09 09:07:55;;;;;;;7.05;4.07;;;;;;;23.40;40.04;100586.91;4436488;32;33549;-80
2022/05/09 09:11:16;;;;;;;8.50;4.62;;;;;;;23.10;39.36;100587.59;4447216;32;35132;-79
2022/05/09 09:14:40;;;;;;;18.10;13.00;;;;;;;23.27;39.08;100585.47;4446964;32;34018;-79
2022/05/09 09:17:53;;;;;;;7.05;4.05;;;;;;;23.39;38.91;100593.66;4449335;32;33327;-80
2022/05/09 09:21:28;;;;;;;9.40;6.05;;;;;;;23.20;37.96;100593.28;4448020;32;32344;-80
2022/05/09 09:24:43;;;;;;;7.55;4.90;;;;;;;23.36;36.46;100590.56;4438403;32;34540;-80
2022/05/09 09:27:40;;;;;;;9.73;5.15;;;;;;;23.45;38.17;100588.91;4425804;32;32495;-81
2022/05/09 09:30:38;;;;;;;37.47;31.17;;;;;;;23.58;38.56;100597.69;4438127;32;31999;-81
2022/05/09 09:33:30;;;;;;;15.45;12.32;;;;;;;23.87;40.31;100589.69;4425561;32;32548;-79
2022/05/09 09:36:25;;;;;;;13.43;10.80;;;;;;;23.91;40.06;100587.19;4425682;32;33101;-79
2022/05/09 09:39:22;;;;;;;15.40;11.68;;;;;;;24.03;40.12;100593.41;4427292;32;33388;-80
2022/05/09 09:42:10;;;;;;;7.70;4.22;;;;;;;24.08;37.25;100584.97;4438002;32;34033;-80
2022/05/09 09:45:01;;;;;;;8.48;3.90;;;;;;;23.53;36.51;100592.06;4426917;32;33264;-79
2022/05/09 09:47:48;;;;;;;7.50;4.37;;;;;;;23.45;36.59;100591.72;4438829;32;33625;-80
2022/05/09 09:51:10;;;;;;;7.60;3.83;;;;;;;23.84;37.94;100589.41;4438013;32;32422;-80
2022/05/09 09:54:10;;;;;;;62.13;44.35;;;;;;;23.78;36.66;100587.69;4430261;32;31790;-80
2022/05/09 09:57:04;;;;;;;35.97;24.95;;;;;;;24.15;38.30;100587.50;4438060;32;34710;-79
2022/05/09 09:59:57;;;;;;;9.63;6.32;;;;;;;24.28;38.45;100579.44;4438062;32;33243;-79
2022/05/09 10:08:35;;;;;;;8.38;5.65;;;;;;;24.82;35.55;100572.44;4465070;32;33152;-80
2022/05/09 10:11:29;;;;;;;8.95;4.22;;;;;;;25.26;36.64;100559.47;4441197;32;35199;-84
2022/05/09 10:13:59;;;;;;;7.40;4.93;;;;;;;25.54;36.35;100554.31;4453776;32;34930;-83
2022/05/09 10:16:33;;;;;;;8.57;4.43;;;;;;;25.65;36.11;100552.34;4440082;32;31835;-81
2022/05/09 10:19:04;;;;;;;8.45;5.75;;;;;;;25.98;34.97;100548.78;4455409;32;33638;-83
2022/05/09 10:24:48;;;;;;;10.75;5.95;;;;;;;26.60;32.87;100546.41;4444852;32;32457;-83
2022/05/09 10:27:32;;;;;;;6.47;4.25;;;;;;;27.13;34.74;100542.53;4433588;32;32841;-80
2022/05/09 10:30:03;;;;;;;6.55;4.60;;;;;;;26.63;30.04;100535.37;4455467;32;33817;-81
2022/05/09 10:32:49;;;;;;;7.03;4.18;;;;;;;26.98;29.79;100530.56;4455931;32;35326;-81
2022/05/09 10:35:36;;;;;;;9.02;5.00;;;;;;;27.62;32.16;100535.75;4442683;32;32251;-81
2022/05/09 10:38:10;;;;;;;7.62;5.97;;;;;;;27.72;32.15;100523.50;4455621;32;34018;-81
2022/05/09 10:40:44;;;;;;;8.00;5.45;;;;;;;28.11;31.15;100520.38;4443021;32;33949;-81
2022/05/09 10:43:38;;;;;;;7.40;5.43;;;;;;;28.30;31.15;100520.41;4455630;32;34542;-81
2022/05/09 10:46:11;;;;;;;15.65;8.23;;;;;;;28.43;31.79;100513.97;4435067;32;34608;-84
2022/05/09 10:48:53;;;;;;;9.45;6.57;;;;;;;28.52;29.32;100514.97;4427093;32;32745;-83
2022/05/09 10:51:28;;;;;;;10.82;5.32;;;;;;;28.77;29.95;100511.66;4426872;32;32306;-82
2022/05/09 10:54:29;;;;;;;7.35;4.25;;;;;;;28.87;29.63;100504.19;4431485;32;34421;-81
2022/05/09 10:57:03;;;;;;;6.07;4.40;;;;;;;28.53;27.82;100502.50;4429033;32;33772;-80
2022/05/09 10:59:31;;;;;;;14.18;5.28;;;;;;;28.79;29.48;100502.88;4441483;32;31810;-83
2022/05/09 11:02:10;;;;;;;7.85;4.80;;;;;;;28.78;28.29;100506.84;4441629;32;33722;-82
2022/05/09 11:04:38;;;;;;;6.37;4.10;;;;;;;29.21;27.79;100506.66;4455519;32;34378;-83
2022/05/09 11:07:30;;;;;;;6.45;3.80;;;;;;;29.24;28.58;100498.37;4428648;32;33689;-82
2022/05/09 11:10:19;;;;;;;6.90;3.80;;;;;;;29.25;26.98;100488.72;4429149;32;33500;-82
2022/05/09 11:13:08;;;;;;;9.05;4.57;;;;;;;29.40;27.02;100487.56;4427680;32;32603;-81
2022/05/09 11:15:51;;;;;;;9.48;4.97;;;;;;;29.71;27.82;100490.59;4440069;32;34215;-80
2022/05/09 11:18:34;;;;;;;6.50;3.83;;;;;;;29.79;27.02;100490.69;4431727;32;34316;-82
2022/05/09 11:21:40;;;;;;;6.40;3.92;;;;;;;29.09;25.88;100490.19;4460073;32;33415;-81
2022/05/09 11:24:10;;;;;;;10.20;7.27;;;;;;;29.63;26.79;100478.03;4428890;32;34402;-82
2022/05/09 11:26:50;;;;;;;7.97;4.35;;;;;;;29.94;28.44;100478.16;4439139;32;35386;-82
2022/05/09 11:30:02;;;;;;;9.85;3.90;;;;;;;29.98;25.89;100472.69;4450931;32;33900;-81
2022/05/09 11:32:43;;;;;;;6.70;3.90;;;;;;;30.17;25.96;100464.91;4445545;32;33341;-81
2022/05/09 11:35:21;;;;;;;7.32;3.58;;;;;;;30.02;24.99;100460.44;4446367;32;34112;-81
2022/05/09 11:38:00;;;;;;;5.90;3.55;;;;;;;29.75;25.24;100454.84;4418835;32;32794;-80
2022/05/09 11:40:38;;;;;;;7.55;4.32;;;;;;;30.02;25.48;100449.12;4432850;32;33137;-81
2022/05/09 11:43:28;;;;;;;8.43;4.80;;;;;;;30.56;24.89;100447.16;4455416;32;33101;-82
2022/05/09 11:46:18;;;;;;;13.02;8.68;;;;;;;30.17;23.59;100444.25;4442702;32;33591;-82
2022/05/09 11:49:07;;;;;;;27.77;23.05;;;;;;;30.50;24.70;100459.81;4438775;32;34694;-83
2022/05/09 11:51:39;;;;;;;6.45;3.83;;;;;;;30.57;25.58;100451.69;4427416;32;34706;-78
2022/05/09 11:54:09;;;;;;;12.52;7.10;;;;;;;30.73;25.34;100454.97;4414477;32;31603;-77
2022/05/09 11:56:41;;;;;;;13.75;3.17;;;;;;;30.43;25.77;100457.44;4441264;32;34399;-80
2022/05/09 11:59:13;;;;;;;6.57;3.85;;;;;;;28.54;24.82;100470.31;4440842;32;34026;-80
2022/05/09 12:01:59;;;;;;;5.95;3.20;;;;;;;27.21;27.09;100479.03;4440959;32;34200;-81
2022/05/09 12:04:53;;;;;;;5.30;3.00;;;;;;;25.93;29.19;100499.03;4441324;32;33960;-79
2022/05/09 12:07:20;;;;;;;5.10;2.47;;;;;;;24.89;31.62;100502.78;4425933;32;32085;-77
2022/05/09 12:09:57;;;;;;;4.72;2.53;;;;;;;24.82;30.44;100491.00;4454819;32;34325;-75
2022/05/09 12:12:37;;;;;;;6.15;2.83;;;;;;;24.24;32.05;100482.91;4440922;32;33421;-77
2022/05/09 12:15:07;;;;;;;6.28;3.15;;;;;;;24.12;33.10;100475.88;4454975;32;33557;-76
2022/05/09 12:17:39;;;;;;;5.87;3.08;;;;;;;24.26;33.50;100469.47;4454963;32;33862;-77
2022/05/09 12:20:12;;;;;;;5.70;2.90;;;;;;;23.67;35.80;100468.25;4440763;32;34285;-77
2022/05/09 12:22:44;;;;;;;5.60;3.05;;;;;;;23.42;36.48;100471.78;4439846;32;33977;-77
2022/05/09 12:25:41;;;;;;;4.93;3.35;;;;;;;23.29;37.45;100470.34;4439936;32;33912;-76
2022/05/09 12:28:18;;;;;;;7.12;3.50;;;;;;;23.56;36.70;100471.03;4441204;32;33457;-77
2022/05/09 12:30:59;;;;;;;6.70;3.95;;;;;;;23.48;36.35;100473.47;4455381;32;34593;-82
2022/05/09 12:33:43;;;;;;;9.82;3.67;;;;;;;23.35;38.51;100480.47;4427067;32;33258;-82
2022/05/09 12:36:19;;;;;;;6.82;4.00;;;;;;;23.57;38.26;100480.28;4427030;32;33003;-83
2022/05/09 12:38:51;;;;;;;7.25;3.70;;;;;;;23.44;39.89;100486.34;4427538;32;34412;-82
2022/05/09 12:41:23;;;;;;;7.22;3.78;;;;;;;23.37;40.82;100494.22;4414972;32;32813;-81
2022/05/09 12:44:01;;;;;;;5.87;4.00;;;;;;;23.33;41.21;100503.16;4440665;32;34670;-84
2022/05/09 12:46:33;;;;;;;5.62;3.85;;;;;;;23.17;41.73;100504.19;4427723;32;33373;-83
2022/05/09 12:49:04;;;;;;;9.38;3.87;;;;;;;23.35;41.23;100502.03;4428170;32;33819;-82
2022/05/09 12:51:40;;;;;;;5.68;3.60;;;;;;;23.36;40.90;100501.75;4427644;32;33885;-82
2022/05/09 12:54:09;;;;;;;8.18;3.95;;;;;;;22.87;41.86;100501.22;4427731;32;33905;-82
2022/05/09 12:56:39;;;;;;;6.93;4.30;;;;;;;22.95;41.72;100504.34;4427977;32;33156;-82
2022/05/09 12:59:09;;;;;;;7.43;4.03;;;;;;;22.92;42.36;100515.25;4427756;32;33742;-80
2022/05/09 13:01:50;;;;;;;8.82;4.82;;;;;;;22.79;43.50;100510.12;4422519;32;35277;-82
2022/05/09 13:04:48;;;;;;;9.43;4.72;;;;;;;22.86;43.86;100521.91;4426197;32;32497;-82
2022/05/09 13:07:21;;;;;;;37.85;30.25;;;;;;;23.04;43.92;100523.44;4454336;32;33426;-81
2022/05/09 13:09:54;;;;;;;37.95;28.23;;;;;;;23.04;44.75;100529.03;4440928;32;33201;-83
2022/05/09 13:12:36;;;;;;;146.43;101.30;;;;;;;22.82;47.61;100524.41;4440684;32;34560;-81
2022/05/09 13:15:14;;;;;;;20.77;12.37;;;;;;;23.12;47.33;100531.31;4440619;32;33864;-82
2022/05/09 13:17:50;;;;;;;14.18;10.32;;;;;;;22.93;50.42;100516.94;4440003;32;33392;-83
2022/05/09 13:20:25;;;;;;;8.88;5.85;;;;;;;23.04;50.68;100524.28;4441022;32;33768;-83
2022/05/09 13:23:40;;;;;;;9.82;5.10;;;;;;;23.08;50.93;100516.19;4441140;32;34443;-84
2022/05/09 13:26:18;;;;;;;8.98;5.28;;;;;;;23.03;51.47;100514.19;4407543;32;34894;-85
2022/05/09 13:28:54;;;;;;;7.95;5.10;;;;;;;22.93;51.61;100506.56;4428230;32;33175;-82